Time;durP1;ratioP1;P1;durP2;ratioP2;P2;SDS_P1;SDS_P2;PMS_P1;PMS_P2;Temp;Humidity;BMP_temperature;BMP_pressure;BME280_temperature;BME280_humidity;BME280_pressure;Samples;Min_cycle;Max_cycle;Signal;HPM_P1;HPM_P2
2023/10/08 00:00:37;;;;;;;0.50;0.50;;;4.90;99.90;;;;;;5113185;28;20191;-71
2023/10/08 00:02:45;;;;;;;0.60;0.60;;;4.90;99.90;;;;;;5131723;27;20578;-70
2023/10/08 00:05:10;;;;;;;0.70;0.70;;;4.80;99.90;;;;;;5133072;27;20198;-71
2023/10/08 00:07:36;;;;;;;0.60;0.60;;;4.90;99.90;;;;;;5114279;27;20198;-71
2023/10/08 00:10:02;;;;;;;0.50;0.50;;;4.90;99.90;;;;;;5132781;27;20195;-70
2023/10/08 00:12:29;;;;;;;0.70;0.70;;;4.80;99.90;;;;;;5132778;27;20267;-70
2023/10/08 00:14:54;;;;;;;0.50;0.50;;;4.90;99.90;;;;;;5132874;27;20187;-72
2023/10/08 00:17:20;;;;;;;0.63;0.63;;;4.90;99.90;;;;;;5133058;27;20198;-71
2023/10/08 00:19:52;;;;;;;0.63;0.63;;;4.80;99.90;;;;;;5132848;27;20191;-71
2023/10/08 00:22:19;;;;;;;0.63;0.63;;;4.70;99.90;;;;;;5132614;27;20676;-71
2023/10/08 00:24:54;;;;;;;0.70;0.70;;;4.60;99.90;;;;;;5132764;27;20195;-70
2023/10/08 00:27:21;;;;;;;0.60;0.60;;;4.60;99.90;;;;;;5132684;27;20210;-71
2023/10/08 00:29:47;;;;;;;0.60;0.60;;;4.60;99.90;;;;;;5132800;27;20547;-71
2023/10/08 00:32:13;;;;;;;0.60;0.60;;;4.60;99.90;;;;;;5132610;27;20194;-71
2023/10/08 00:34:42;;;;;;;0.63;0.63;;;4.60;99.90;;;;;;5132454;27;20191;-71
2023/10/08 00:37:10;;;;;;;0.60;0.60;;;4.60;99.90;;;;;;5132826;27;20629;-70
2023/10/08 00:39:37;;;;;;;0.60;0.60;;;4.70;99.90;;;;;;5114041;27;20195;-71
2023/10/08 00:42:07;;;;;;;0.80;0.80;;;4.60;99.90;;;;;;5129934;27;20187;-70
2023/10/08 00:44:51;;;;;;;0.65;0.65;;;4.70;99.90;;;;;;5111567;28;20195;-71
2023/10/08 00:47:17;;;;;;;0.60;0.60;;;4.70;99.90;;;;;;5111860;28;20217;-71
2023/10/08 00:57:35;;;;;;;0.60;0.60;;;4.60;99.90;;;;;;5117115;27;20209;-70
2023/10/08 01:00:03;;;;;;;0.60;0.60;;;4.60;99.90;;;;;;5131982;27;20599;-71
2023/10/08 01:02:54;;;;;;;0.80;0.80;;;4.50;99.90;;;;;;5131062;27;20654;-72
2023/10/08 01:05:42;;;;;;;0.70;0.70;;;4.70;99.90;;;;;;5110603;27;20343;-72
2023/10/08 01:08:08;;;;;;;0.60;0.60;;;4.70;99.90;;;;;;5111427;28;20200;-72
2023/10/08 01:10:35;;;;;;;0.70;0.70;;;4.70;99.90;;;;;;5093028;28;20200;-72
2023/10/08 01:15:30;;;;;;;0.65;0.65;;;4.70;99.90;;;;;;5111867;28;20642;-72
2023/10/08 01:18:14;;;;;;;0.60;0.60;;;4.70;99.90;;;;;;5111539;28;20638;-72
2023/10/08 01:23:22;;;;;;;0.50;0.50;;;4.70;99.90;;;;;;5111689;28;20196;-72
2023/10/08 01:25:52;;;;;;;0.50;0.50;;;4.70;99.90;;;;;;5111709;28;20620;-72
2023/10/08 01:28:26;;;;;;;0.57;0.57;;;4.60;99.90;;;;;;5111146;28;20199;-72
2023/10/08 01:30:54;;;;;;;0.70;0.70;;;4.80;99.90;;;;;;5111431;28;20286;-72
2023/10/08 01:33:21;;;;;;;0.60;0.60;;;4.70;99.90;;;;;;5111274;28;20722;-73
2023/10/08 01:35:48;;;;;;;0.60;0.60;;;4.80;99.90;;;;;;5111037;28;20231;-72
2023/10/08 01:38:16;;;;;;;0.70;0.70;;;4.70;99.90;;;;;;5111328;28;20655;-72
2023/10/08 01:40:42;;;;;;;0.60;0.60;;;4.60;99.90;;;;;;5092758;28;20260;-72
2023/10/08 01:43:08;;;;;;;0.73;0.73;;;4.60;99.90;;;;;;5111110;28;20659;-71
2023/10/08 01:45:42;;;;;;;0.70;0.70;;;4.70;99.90;;;;;;5092542;28;20669;-72
2023/10/08 01:48:10;;;;;;;0.60;0.60;;;4.70;99.90;;;;;;5111194;28;20218;-71
2023/10/08 01:50:37;;;;;;;0.60;0.60;;;4.70;99.90;;;;;;5110968;28;20210;-72
2023/10/08 01:53:09;;;;;;;0.70;0.70;;;4.70;99.90;;;;;;5092730;27;20238;-72
2023/10/08 01:55:48;;;;;;;0.73;0.73;;;4.60;99.90;;;;;;5112640;27;20251;-72
2023/10/08 01:58:18;;;;;;;0.80;0.80;;;4.70;99.90;;;;;;5131859;27;20199;-72
2023/10/08 02:00:48;;;;;;;0.93;0.93;;;4.70;99.90;;;;;;5131142;27;20649;-71
2023/10/08 02:03:15;;;;;;;0.75;0.75;;;4.70;99.90;;;;;;5112572;27;20666;-72
2023/10/08 02:05:45;;;;;;;0.50;0.50;;;4.70;99.90;;;;;;5131110;27;20278;-72
2023/10/08 02:08:12;;;;;;;0.88;0.88;;;4.70;99.90;;;;;;5112786;27;20195;-72
2023/10/08 02:10:40;;;;;;;0.60;0.60;;;4.70;99.90;;;;;;5112626;27;20203;-72
2023/10/08 02:13:08;;;;;;;0.60;0.60;;;4.70;99.90;;;;;;5130897;27;20600;-71
2023/10/08 02:15:34;;;;;;;0.50;0.50;;;4.70;99.90;;;;;;5131034;27;20363;-72
2023/10/08 02:18:00;;;;;;;0.70;0.70;;;4.70;99.90;;;;;;5131126;27;20206;-74
2023/10/08 02:20:27;;;;;;;0.65;0.65;;;4.80;99.90;;;;;;5130898;27;20266;-73
2023/10/08 02:22:53;;;;;;;0.80;0.80;;;4.70;99.90;;;;;;5130483;27;20195;-74
2023/10/08 02:25:19;;;;;;;1.00;1.00;;;4.50;99.90;;;;;;5130416;27;20623;-74
2023/10/08 02:27:45;;;;;;;0.60;0.60;;;4.40;99.90;;;;;;5130347;27;20286;-74
2023/10/08 02:30:12;;;;;;;0.55;0.55;;;4.20;99.90;;;;;;5130452;27;20186;-74
2023/10/08 02:32:42;;;;;;;0.47;0.47;;;4.30;99.90;;;;;;5129998;27;20198;-73
2023/10/08 02:35:11;;;;;;;0.70;0.70;;;4.50;99.90;;;;;;5111600;27;20234;-74
2023/10/08 02:37:39;;;;;;;0.60;0.60;;;4.60;99.90;;;;;;5130074;27;20190;-74
2023/10/08 02:40:27;;;;;;;0.50;0.50;;;4.50;99.90;;;;;;5130214;27;20240;-74
2023/10/08 02:42:58;;;;;;;0.60;0.60;;;4.50;99.90;;;;;;5111427;27;20294;-73
2023/10/08 02:45:25;;;;;;;0.55;0.55;;;4.50;99.90;;;;;;5130202;27;20194;-74
2023/10/08 02:47:52;;;;;;;0.60;0.60;;;4.50;99.90;;;;;;5130169;27;20198;-74
2023/10/08 02:50:19;;;;;;;0.60;0.60;;;4.40;99.90;;;;;;5129843;27;20202;-73
2023/10/08 02:52:44;;;;;;;0.80;0.80;;;4.50;99.90;;;;;;5130172;27;20214;-74
2023/10/08 02:55:24;;;;;;;0.70;0.70;;;4.50;99.90;;;;;;5129928;27;20198;-74
2023/10/08 02:57:50;;;;;;;0.70;0.70;;;4.50;99.90;;;;;;5128005;27;20214;-73
2023/10/08 03:00:19;;;;;;;0.80;0.80;;;4.40;99.90;;;;;;5111028;27;20693;-74
2023/10/08 03:02:46;;;;;;;0.82;0.82;;;4.40;99.90;;;;;;5099973;28;20187;-73
2023/10/08 03:05:16;;;;;;;0.70;0.70;;;4.40;99.90;;;;;;5129997;27;20195;-74
2023/10/08 03:07:42;;;;;;;0.70;0.70;;;4.20;99.90;;;;;;5129650;27;20191;-71
2023/10/08 03:10:17;;;;;;;0.80;0.80;;;4.10;99.90;;;;;;5129969;27;20275;-71
2023/10/08 03:12:46;;;;;;;0.70;0.70;;;4.10;99.90;;;;;;5129769;28;20288;-72
2023/10/08 03:15:13;;;;;;;0.70;0.70;;;3.90;99.90;;;;;;5129734;28;20183;-70
2023/10/08 03:17:48;;;;;;;0.70;0.70;;;3.90;99.90;;;;;;5129760;28;20195;-72
2023/10/08 03:22:57;;;;;;;0.60;0.60;;;3.80;99.90;;;;;;5129723;28;20745;-72
2023/10/08 03:25:24;;;;;;;0.60;0.60;;;3.80;99.90;;;;;;5131172;27;20750;-72
2023/10/08 03:27:50;;;;;;;0.52;0.52;;;3.60;99.90;;;;;;5134018;27;20250;-74
2023/10/08 03:30:16;;;;;;;0.63;0.63;;;3.60;99.90;;;;;;5133904;27;20191;-74
2023/10/08 03:32:50;;;;;;;0.60;0.60;;;3.50;99.90;;;;;;5133502;27;20666;-74
2023/10/08 03:35:23;;;;;;;0.60;0.60;;;3.40;99.90;;;;;;5133651;27;20239;-74
2023/10/08 03:37:50;;;;;;;0.70;0.70;;;3.50;99.90;;;;;;5133602;27;20217;-74
2023/10/08 03:40:25;;;;;;;0.60;0.60;;;3.50;99.90;;;;;;5133844;27;20187;-74
2023/10/08 03:42:55;;;;;;;0.60;0.60;;;3.40;99.90;;;;;;5133460;27;20232;-74
2023/10/08 03:48:08;;;;;;;0.60;0.60;;;3.60;99.90;;;;;;5113134;28;20253;-73
2023/10/08 03:50:41;;;;;;;0.63;0.63;;;3.70;99.90;;;;;;5112983;28;20187;-73
2023/10/08 03:53:11;;;;;;;0.28;0.28;;;3.70;99.90;;;;;;5113911;27;20234;-74
2023/10/08 03:55:40;;;;;;;0.35;0.35;;;3.70;99.90;;;;;;5133060;27;20195;-73
2023/10/08 03:58:11;;;;;;;0.30;0.30;;;3.60;99.90;;;;;;5133487;27;20201;-74
2023/10/08 04:00:41;;;;;;;0.30;0.30;;;3.60;99.90;;;;;;5133234;27;20215;-77
2023/10/08 04:03:11;;;;;;;0.30;0.30;;;3.50;99.90;;;;;;5133235;27;20217;-74
2023/10/08 04:06:38;;;;;;;0.30;0.30;;;3.50;99.90;;;;;;5133073;27;20302;-74
2023/10/08 04:11:32;;;;;;;0.30;0.30;;;3.30;99.90;;;;;;5100735;27;20222;-73
2023/10/08 04:14:02;;;;;;;0.22;0.22;;;3.30;99.90;;;;;;5114752;27;20214;-74
2023/10/08 04:16:28;;;;;;;0.30;0.30;;;3.30;99.90;;;;;;5114471;27;20225;-73
2023/10/08 04:18:55;;;;;;;0.30;0.30;;;3.30;99.90;;;;;;5114455;27;20206;-71
2023/10/08 04:21:27;;;;;;;0.30;0.30;;;3.20;99.90;;;;;;5132782;27;20239;-71
2023/10/08 04:23:53;;;;;;;0.40;0.40;;;3.10;99.90;;;;;;5133023;27;20194;-71
2023/10/08 04:26:23;;;;;;;0.30;0.30;;;3.10;99.90;;;;;;5133034;27;20241;-72
2023/10/08 04:28:54;;;;;;;0.30;0.30;;;3.10;99.90;;;;;;5113958;27;20207;-71
2023/10/08 04:31:24;;;;;;;0.38;0.38;;;3.00;99.90;;;;;;5132753;27;20221;-71
2023/10/08 04:33:50;;;;;;;0.30;0.30;;;3.00;99.90;;;;;;5132817;27;20665;-71
2023/10/08 04:36:19;;;;;;;0.30;0.30;;;3.10;99.90;;;;;;5131727;27;20556;-72
2023/10/08 04:38:48;;;;;;;0.20;0.20;;;3.30;99.90;;;;;;5132327;27;20187;-72
2023/10/08 04:41:19;;;;;;;0.20;0.20;;;3.40;99.90;;;;;;5132582;27;20191;-73
2023/10/08 04:43:45;;;;;;;0.20;0.20;;;3.60;99.90;;;;;;5132406;27;20712;-71
2023/10/08 04:46:33;;;;;;;0.30;0.30;;;3.70;99.90;;;;;;5113818;27;20203;-71
2023/10/08 04:49:05;;;;;;;0.30;0.30;;;3.90;99.90;;;;;;5132262;27;20195;-72
2023/10/08 04:51:35;;;;;;;0.22;0.22;;;3.90;99.90;;;;;;5101827;28;20199;-71
2023/10/08 04:54:04;;;;;;;0.30;0.30;;;3.90;99.90;;;;;;5120223;27;20227;-71
2023/10/08 04:56:33;;;;;;;0.30;0.30;;;3.90;99.90;;;;;;5132115;27;20186;-71
2023/10/08 04:58:58;;;;;;;0.30;0.30;;;3.90;99.90;;;;;;5132169;27;20715;-71
2023/10/08 05:04:45;;;;;;;0.30;0.30;;;3.70;99.90;;;;;;5115670;27;20551;-72
2023/10/08 05:07:20;;;;;;;0.30;0.30;;;3.70;99.90;;;;;;5132154;27;20183;-71
2023/10/08 05:20:40;;;;;;;0.20;0.20;;;3.80;99.90;;;;;;5132137;27;20198;-72
2023/10/08 05:29:01;;;;;;;0.20;0.20;;;3.80;99.90;;;;;;5131821;27;20620;-72
2023/10/08 05:31:53;;;;;;;0.20;0.20;;;3.80;99.90;;;;;;5113162;27;20318;-72
2023/10/08 05:34:23;;;;;;;0.30;0.30;;;3.80;99.90;;;;;;5131548;27;20292;-72
2023/10/08 05:39:40;;;;;;;0.22;0.22;;;4.00;99.90;;;;;;5131375;27;20625;-72
2023/10/08 05:53:01;;;;;;;0.20;0.20;;;3.90;99.90;;;;;;5110850;28;20225;-70
2023/10/08 05:55:35;;;;;;;0.30;0.30;;;3.90;99.90;;;;;;5110586;28;20214;-71
2023/10/08 06:01:01;;;;;;;0.30;0.30;;;4.00;99.90;;;;;;5110435;28;20245;-72
2023/10/08 06:03:35;;;;;;;4.03;0.63;;;4.00;99.90;;;;;;5110045;28;20206;-71
2023/10/08 06:09:04;;;;;;;0.30;0.30;;;4.20;99.90;;;;;;5110050;28;20191;-71
2023/10/08 06:11:55;;;;;;;0.38;0.38;;;4.30;99.90;;;;;;5110087;28;20191;-72
2023/10/08 06:14:42;;;;;;;0.30;0.30;;;4.30;99.90;;;;;;5110205;28;20248;-71
2023/10/08 06:17:23;;;;;;;0.25;0.25;;;4.30;99.90;;;;;;5109879;28;20264;-71
2023/10/08 06:19:52;;;;;;;0.30;0.30;;;4.50;99.90;;;;;;5114365;27;20193;-71
2023/10/08 06:22:19;;;;;;;0.30;0.30;;;4.50;99.90;;;;;;5130541;27;20194;-71
2023/10/08 06:24:44;;;;;;;0.30;0.30;;;4.50;99.90;;;;;;5131034;27;20247;-71
2023/10/08 06:27:16;;;;;;;0.22;0.22;;;4.50;99.90;;;;;;5130710;27;20289;-71
2023/10/08 06:29:44;;;;;;;0.30;0.30;;;4.50;99.90;;;;;;5130518;27;20195;-72
2023/10/08 06:32:11;;;;;;;0.30;0.30;;;4.70;99.90;;;;;;5130528;27;20197;-72
2023/10/08 06:34:40;;;;;;;0.30;0.30;;;4.80;99.90;;;;;;5130325;27;20205;-72
2023/10/08 06:37:08;;;;;;;0.60;0.60;;;4.90;99.90;;;;;;5130644;27;20194;-71
2023/10/08 06:39:47;;;;;;;0.30;0.30;;;5.00;99.90;;;;;;5130815;27;20187;-72
2023/10/08 06:42:15;;;;;;;0.30;0.30;;;5.10;99.90;;;;;;5112273;27;20199;-72
2023/10/08 06:44:43;;;;;;;0.22;0.22;;;5.20;99.90;;;;;;5112829;27;20252;-72
2023/10/08 06:47:09;;;;;;;0.30;0.30;;;5.20;99.90;;;;;;5110087;28;20255;-72
2023/10/08 06:49:35;;;;;;;0.30;0.30;;;5.30;99.90;;;;;;5109837;28;20199;-72
2023/10/08 06:52:02;;;;;;;0.30;0.30;;;5.40;99.90;;;;;;5091743;28;20567;-73
2023/10/08 06:54:30;;;;;;;0.30;0.30;;;5.50;99.90;;;;;;5122304;27;20588;-72
2023/10/08 06:56:56;;;;;;;0.40;0.40;;;5.60;99.90;;;;;;5129112;27;20662;-72
2023/10/08 06:59:25;;;;;;;0.20;0.20;;;5.60;99.90;;;;;;5128431;27;20672;-73
2023/10/08 07:01:51;;;;;;;0.30;0.30;;;5.60;99.90;;;;;;5129100;27;20194;-72
2023/10/08 07:04:18;;;;;;;0.38;0.38;;;5.70;99.90;;;;;;5129119;27;20709;-72
2023/10/08 07:06:46;;;;;;;0.30;0.30;;;5.70;99.90;;;;;;5130665;27;20222;-72
2023/10/08 07:11:55;;;;;;;0.30;0.30;;;5.90;99.90;;;;;;5130933;27;20198;-73
2023/10/08 07:14:28;;;;;;;0.30;0.30;;;6.00;99.90;;;;;;5130075;27;20202;-72
2023/10/08 07:16:58;;;;;;;0.28;0.28;;;6.10;99.90;;;;;;5130599;27;20202;-72
2023/10/08 07:19:32;;;;;;;0.28;0.28;;;6.10;99.90;;;;;;5111778;28;20206;-72
2023/10/08 07:22:06;;;;;;;0.30;0.30;;;6.10;99.90;;;;;;5111650;28;20197;-72
2023/10/08 07:24:34;;;;;;;0.30;0.30;;;6.20;99.90;;;;;;5130162;28;20663;-72
2023/10/08 07:27:08;;;;;;;0.30;0.30;;;6.30;99.90;;;;;;5111456;28;20275;-73
2023/10/08 07:29:35;;;;;;;0.30;0.30;;;6.30;99.90;;;;;;5111364;28;20203;-72
2023/10/08 07:32:09;;;;;;;0.25;0.25;;;6.40;99.90;;;;;;5111682;28;20305;-71
2023/10/08 07:34:36;;;;;;;0.40;0.40;;;6.60;99.90;;;;;;5111325;28;20669;-73
2023/10/08 07:37:02;;;;;;;0.20;0.20;;;6.60;99.90;;;;;;5129946;28;20199;-73
2023/10/08 07:39:33;;;;;;;0.30;0.30;;;6.60;99.90;;;;;;5111357;28;20194;-73
2023/10/08 07:42:05;;;;;;;0.20;0.20;;;6.70;99.90;;;;;;5130060;28;20278;-73
2023/10/08 07:44:35;;;;;;;0.30;0.30;;;6.70;99.90;;;;;;5111201;28;20199;-72
2023/10/08 07:47:01;;;;;;;0.85;0.47;;;6.80;99.90;;;;;;5130228;28;20273;-73
2023/10/08 07:49:29;;;;;;;0.20;0.20;;;6.90;99.90;;;;;;5111164;28;20327;-75
2023/10/08 07:51:58;;;;;;;0.30;0.30;;;7.00;99.90;;;;;;5129898;28;20271;-75
2023/10/08 07:54:27;;;;;;;0.22;0.22;;;7.10;99.90;;;;;;5129000;28;20226;-75
2023/10/08 07:57:08;;;;;;;0.10;0.10;;;7.20;99.90;;;;;;5129376;27;20214;-75
2023/10/08 07:59:46;;;;;;;0.20;0.20;;;7.30;99.90;;;;;;5129301;27;20187;-75
2023/10/08 08:02:17;;;;;;;0.20;0.20;;;7.30;99.90;;;;;;5129459;28;20222;-74
2023/10/08 08:04:45;;;;;;;0.20;0.20;;;7.40;99.90;;;;;;5129464;27;20183;-75
2023/10/08 08:07:18;;;;;;;0.20;0.20;;;7.50;99.90;;;;;;5129995;27;20247;-74
2023/10/08 08:09:50;;;;;;;0.20;0.20;;;7.60;99.90;;;;;;5129766;27;20610;-74
2023/10/08 08:12:21;;;;;;;0.20;0.20;;;7.70;99.90;;;;;;5129794;27;20201;-75
2023/10/08 08:14:48;;;;;;;0.30;0.30;;;7.70;99.90;;;;;;5133163;27;20786;-75
2023/10/08 08:17:14;;;;;;;0.30;0.30;;;7.80;99.90;;;;;;5133137;27;20198;-74
2023/10/08 08:19:41;;;;;;;0.30;0.30;;;7.90;99.90;;;;;;5133163;27;20228;-75
2023/10/08 08:22:07;;;;;;;0.25;0.25;;;8.00;99.90;;;;;;5132984;27;20669;-74
2023/10/08 08:24:35;;;;;;;0.20;0.20;;;8.00;99.90;;;;;;5132640;27;20214;-75
2023/10/08 08:27:08;;;;;;;0.20;0.20;;;8.00;99.90;;;;;;5114427;27;20202;-75
2023/10/08 08:29:44;;;;;;;1.75;0.82;;;8.10;99.90;;;;;;5114354;27;20194;-75
2023/10/08 08:32:15;;;;;;;0.30;0.30;;;8.30;99.90;;;;;;5114187;27;20266;-74
2023/10/08 08:34:43;;;;;;;0.20;0.20;;;8.20;99.90;;;;;;5132552;27;20708;-74
2023/10/08 08:37:11;;;;;;;0.30;0.30;;;8.30;99.90;;;;;;5132449;27;20191;-75
2023/10/08 08:39:37;;;;;;;0.28;0.28;;;8.30;99.90;;;;;;5132410;27;20571;-75
2023/10/08 08:42:06;;;;;;;0.30;0.30;;;8.40;99.90;;;;;;5132880;27;20739;-75
2023/10/08 08:44:45;;;;;;;0.30;0.30;;;8.60;99.90;;;;;;5114026;27;20573;-75
2023/10/08 08:47:17;;;;;;;0.30;0.30;;;8.80;99.90;;;;;;5132599;27;20187;-76
2023/10/08 08:49:47;;;;;;;0.30;0.30;;;9.00;99.90;;;;;;5113896;27;20195;-76
2023/10/08 08:52:14;;;;;;;0.20;0.20;;;8.90;99.90;;;;;;5132521;27;20198;-76
2023/10/08 08:54:42;;;;;;;0.20;0.20;;;9.10;99.90;;;;;;5146244;27;20693;-75
2023/10/08 08:57:13;;;;;;;0.20;0.20;;;9.20;99.90;;;;;;5153048;27;20201;-76
2023/10/08 08:59:59;;;;;;;0.30;0.30;;;9.40;99.90;;;;;;5153198;27;20258;-73
2023/10/08 09:02:25;;;;;;;0.20;0.20;;;9.50;99.90;;;;;;5153438;27;20190;-72
2023/10/08 09:04:53;;;;;;;0.20;0.20;;;9.50;99.90;;;;;;5134491;27;20246;-73
2023/10/08 09:07:24;;;;;;;0.20;0.20;;;9.60;99.90;;;;;;5153246;27;20197;-72
2023/10/08 09:09:49;;;;;;;1.45;0.57;;;9.70;99.90;;;;;;5121982;27;20200;-73
2023/10/08 09:12:17;;;;;;;0.20;0.20;;;9.80;99.90;;;;;;5093733;28;20204;-73
2023/10/08 09:14:44;;;;;;;0.30;0.30;;;9.50;99.90;;;;;;5111574;28;20260;-73
2023/10/08 09:17:11;;;;;;;0.30;0.30;;;9.50;99.90;;;;;;5093154;28;20201;-72
2023/10/08 09:19:38;;;;;;;0.20;0.20;;;9.70;99.90;;;;;;5094699;27;20244;-75
2023/10/08 09:22:12;;;;;;;0.28;0.28;;;9.70;99.90;;;;;;5131727;27;20650;-75
2023/10/08 09:24:42;;;;;;;0.20;0.20;;;9.90;99.90;;;;;;5131155;27;20195;-75
2023/10/08 09:27:14;;;;;;;0.30;0.30;;;9.70;99.90;;;;;;5131921;27;20598;-75
2023/10/08 09:29:40;;;;;;;0.20;0.20;;;10.00;99.90;;;;;;5112994;27;20198;-75
2023/10/08 09:32:09;;;;;;;0.20;0.20;;;10.30;99.90;;;;;;5131047;27;20202;-76
2023/10/08 09:34:34;;;;;;;0.20;0.20;;;10.30;99.90;;;;;;5131180;27;20214;-75
2023/10/08 09:37:01;;;;;;;0.30;0.30;;;10.50;99.90;;;;;;5131765;27;20596;-76
2023/10/08 09:39:29;;;;;;;0.20;0.20;;;10.60;99.90;;;;;;5131365;27;20255;-75
2023/10/08 09:41:58;;;;;;;0.20;0.20;;;10.50;99.90;;;;;;5112980;27;20191;-76
2023/10/08 09:44:24;;;;;;;1.15;1.05;;;10.50;99.90;;;;;;5131133;27;20199;-76
2023/10/08 09:47:12;;;;;;;0.20;0.20;;;11.00;99.90;;;;;;5131239;27;20201;-75
2023/10/08 09:49:50;;;;;;;0.20;0.20;;;11.20;99.90;;;;;;5131307;27;20680;-75
2023/10/08 09:52:19;;;;;;;0.20;0.20;;;11.40;99.90;;;;;;5131489;27;20202;-75
2023/10/08 09:54:53;;;;;;;0.20;0.20;;;11.50;99.90;;;;;;5130715;27;20223;-76
2023/10/08 09:57:21;;;;;;;0.20;0.20;;;11.20;99.90;;;;;;5131269;27;20194;-76
2023/10/08 09:59:48;;;;;;;0.20;0.20;;;11.40;99.90;;;;;;5131413;27;20291;-75
2023/10/08 10:02:15;;;;;;;0.20;0.20;;;11.20;99.90;;;;;;5130974;27;20191;-75
2023/10/08 10:04:44;;;;;;;0.20;0.20;;;11.10;99.90;;;;;;5130675;27;20240;-76
2023/10/08 10:07:16;;;;;;;0.30;0.30;;;11.10;99.90;;;;;;5131252;27;20279;-75
2023/10/08 10:09:49;;;;;;;0.20;0.20;;;11.20;99.90;;;;;;5112524;27;20808;-73
2023/10/08 10:12:26;;;;;;;0.28;0.28;;;10.90;99.90;;;;;;5112812;27;20199;-74
2023/10/08 10:14:57;;;;;;;0.20;0.20;;;11.10;99.90;;;;;;5131086;27;20573;-74
2023/10/08 10:17:28;;;;;;;0.20;0.20;;;11.20;99.90;;;;;;5130574;27;20733;-73
2023/10/08 10:20:00;;;;;;;0.20;0.20;;;11.40;99.90;;;;;;5130753;27;20193;-74
2023/10/08 10:22:29;;;;;;;0.20;0.20;;;11.60;99.90;;;;;;5130772;27;20187;-74
2023/10/08 10:24:57;;;;;;;0.20;0.20;;;11.60;99.90;;;;;;5130495;27;20187;-74
2023/10/08 10:27:23;;;;;;;0.20;0.20;;;11.70;99.90;;;;;;5112001;27;20210;-74
2023/10/08 10:29:49;;;;;;;0.20;0.20;;;11.90;99.90;;;;;;5093258;28;20203;-74
2023/10/08 10:32:16;;;;;;;0.20;0.20;;;11.80;99.90;;;;;;5109842;28;20570;-75
2023/10/08 10:34:43;;;;;;;0.20;0.20;;;11.80;99.90;;;;;;5109477;28;20310;-74
2023/10/08 10:37:18;;;;;;;0.20;0.20;;;11.90;99.90;;;;;;5109732;28;20195;-74
2023/10/08 10:40:00;;;;;;;0.25;0.25;;;12.00;99.90;;;;;;5109616;28;20429;-74
2023/10/08 10:42:28;;;;;;;0.20;0.20;;;12.20;99.90;;;;;;5109464;28;20213;-74
2023/10/08 10:44:56;;;;;;;0.20;0.20;;;12.30;99.90;;;;;;5091103;28;20194;-74
2023/10/08 10:52:31;;;;;;;0.20;0.20;;;12.20;99.90;;;;;;5109959;28;20210;-74
2023/10/08 10:58:04;;;;;;;0.30;0.30;;;12.50;99.90;;;;;;5130251;27;20190;-75
2023/10/08 11:03:02;;;;;;;0.20;0.20;;;12.90;98.60;;;;;;5109717;28;20199;-75
2023/10/08 11:05:29;;;;;;;0.20;0.20;;;12.40;99.90;;;;;;5109424;28;20191;-74
2023/10/08 11:08:06;;;;;;;0.20;0.20;;;12.40;99.90;;;;;;5109427;28;20210;-75
2023/10/08 11:10:33;;;;;;;0.47;0.32;;;12.40;99.90;;;;;;5109307;28;20286;-75
2023/10/08 11:13:01;;;;;;;0.20;0.20;;;12.30;99.70;;;;;;5117993;27;20259;-74
2023/10/08 11:15:40;;;;;;;0.20;0.20;;;12.50;99.90;;;;;;5129713;27;20222;-75
2023/10/08 11:18:10;;;;;;;0.28;0.28;;;12.50;98.40;;;;;;5129741;28;20601;-74
2023/10/08 11:20:39;;;;;;;0.20;0.20;;;12.20;99.90;;;;;;5129627;28;20201;-75
2023/10/08 11:23:17;;;;;;;0.22;0.22;;;12.10;99.00;;;;;;5111142;28;20191;-74
2023/10/08 11:26:02;;;;;;;0.10;0.10;;;12.00;99.90;;;;;;5113466;28;20248;-75
2023/10/08 11:28:28;;;;;;;0.43;0.43;;;12.00;99.90;;;;;;5108885;28;20238;-75
2023/10/08 11:30:59;;;;;;;0.20;0.20;;;12.00;99.90;;;;;;5090752;28;21046;-74
2023/10/08 11:33:27;;;;;;;0.20;0.20;;;12.20;99.70;;;;;;5108774;28;20287;-74
2023/10/08 11:36:02;;;;;;;0.30;0.30;;;12.30;99.90;;;;;;5109092;28;20195;-75
2023/10/08 11:38:37;;;;;;;0.20;0.20;;;12.60;99.90;;;;;;5108892;28;20273;-77
2023/10/08 11:41:23;;;;;;;0.20;0.20;;;12.40;98.10;;;;;;5109421;28;20183;-76
2023/10/08 11:43:53;;;;;;;0.20;0.20;;;12.60;99.90;;;;;;5109595;28;20654;-77
2023/10/08 11:46:25;;;;;;;0.20;0.20;;;12.50;98.70;;;;;;5111167;28;20195;-76
2023/10/08 11:48:51;;;;;;;0.20;0.20;;;12.80;98.80;;;;;;5094479;28;20264;-75
2023/10/08 11:51:17;;;;;;;0.20;0.20;;;12.60;97.30;;;;;;5113451;28;20249;-76
2023/10/08 11:53:44;;;;;;;0.22;0.22;;;12.70;99.20;;;;;;5103622;27;20229;-76
2023/10/08 11:56:13;;;;;;;0.30;0.30;;;12.70;98.90;;;;;;5133497;27;20567;-75
2023/10/08 11:58:44;;;;;;;0.20;0.20;;;12.40;98.10;;;;;;5133527;27;20199;-75
2023/10/08 12:01:18;;;;;;;0.57;0.57;;;12.20;98.90;;;;;;5133371;27;20187;-76
2023/10/08 12:03:45;;;;;;;0.20;0.20;;;12.00;99.00;;;;;;5133348;27;20198;-77
2023/10/08 12:06:18;;;;;;;0.20;0.20;;;12.10;98.80;;;;;;5114726;27;20194;-78
2023/10/08 12:08:46;;;;;;;0.20;0.20;;;12.40;98.60;;;;;;5132936;27;20194;-77
2023/10/08 12:11:13;;;;;;;0.20;0.20;;;12.40;97.50;;;;;;5133129;27;20602;-76
2023/10/08 12:13:44;;;;;;;0.20;0.20;;;12.30;97.80;;;;;;5133125;27;20210;-75
2023/10/08 12:16:18;;;;;;;0.20;0.20;;;12.30;97.30;;;;;;5133046;27;20195;-77
2023/10/08 12:18:48;;;;;;;0.20;0.20;;;12.30;97.20;;;;;;5132998;27;20198;-77
2023/10/08 12:21:15;;;;;;;0.20;0.20;;;12.20;97.90;;;;;;5132602;27;20590;-77
2023/10/08 12:23:43;;;;;;;0.20;0.20;;;12.30;98.30;;;;;;5132803;27;20199;-76
2023/10/08 12:26:09;;;;;;;0.22;0.22;;;12.40;98.20;;;;;;5133131;27;20676;-76
2023/10/08 12:28:39;;;;;;;0.20;0.20;;;12.50;97.80;;;;;;5114451;27;20224;-75
2023/10/08 12:31:04;;;;;;;0.20;0.20;;;12.40;97.30;;;;;;5132947;27;20195;-75
2023/10/08 12:33:31;;;;;;;0.20;0.20;;;12.20;96.70;;;;;;5132930;27;20199;-75
2023/10/08 12:35:57;;;;;;;0.20;0.20;;;12.10;98.10;;;;;;5133033;27;20187;-75
2023/10/08 12:38:27;;;;;;;0.20;0.20;;;11.90;96.90;;;;;;5132708;27;20203;-75
2023/10/08 12:40:53;;;;;;;0.20;0.20;;;11.40;97.00;;;;;;5132835;27;20197;-75
2023/10/08 12:43:26;;;;;;;0.20;0.20;;;11.30;99.40;;;;;;5132439;27;20194;-74
2023/10/08 12:45:53;;;;;;;0.20;0.20;;;11.40;98.80;;;;;;5132424;27;20191;-74
2023/10/08 12:48:26;;;;;;;0.20;0.20;;;11.40;98.60;;;;;;5132577;27;20689;-73
2023/10/08 12:50:58;;;;;;;0.20;0.20;;;11.30;99.20;;;;;;5133133;27;20227;-72
2023/10/08 12:53:36;;;;;;;0.20;0.20;;;11.30;99.00;;;;;;5113441;27;20230;-71
2023/10/08 12:56:15;;;;;;;0.20;0.20;;;11.20;99.80;;;;;;5132238;27;20193;-74
2023/10/08 12:58:44;;;;;;;0.20;0.20;;;11.20;99.00;;;;;;5130895;27;20226;-74
2023/10/08 13:01:10;;;;;;;0.20;0.20;;;11.10;99.90;;;;;;5132159;27;20195;-73
2023/10/08 13:03:43;;;;;;;0.20;0.20;;;10.90;98.20;;;;;;5131862;27;20195;-73
2023/10/08 13:06:21;;;;;;;0.20;0.20;;;10.70;98.30;;;;;;5132339;27;20206;-72
2023/10/08 13:08:52;;;;;;;0.20;0.20;;;10.70;99.90;;;;;;5132279;27;20647;-72
2023/10/08 13:11:22;;;;;;;0.20;0.20;;;10.70;99.90;;;;;;5132030;27;20202;-73
2023/10/08 13:13:52;;;;;;;0.20;0.20;;;10.70;99.70;;;;;;5132093;27;20217;-72
2023/10/08 13:16:21;;;;;;;0.20;0.20;;;10.70;99.30;;;;;;5131653;27;20198;-72
2023/10/08 13:18:48;;;;;;;0.25;0.25;;;10.70;99.30;;;;;;5092743;28;20667;-72
2023/10/08 13:21:19;;;;;;;0.20;0.20;;;10.50;98.50;;;;;;5111479;28;20183;-71
2023/10/08 13:23:46;;;;;;;0.20;0.20;;;10.40;99.80;;;;;;5111129;28;20192;-71
2023/10/08 13:26:16;;;;;;;0.20;0.20;;;10.20;99.90;;;;;;5111222;28;20242;-72
2023/10/08 13:28:44;;;;;;;0.20;0.20;;;10.00;99.90;;;;;;5111063;28;20630;-73
2023/10/08 13:31:10;;;;;;;0.20;0.20;;;9.90;99.90;;;;;;5111105;28;20554;-72
2023/10/08 13:33:42;;;;;;;0.63;0.63;;;9.80;99.90;;;;;;5092558;28;20550;-70
2023/10/08 13:36:09;;;;;;;0.20;0.20;;;9.70;99.90;;;;;;5092552;28;20311;-72
2023/10/08 13:38:36;;;;;;;0.30;0.30;;;9.70;99.90;;;;;;5110607;28;20266;-73
2023/10/08 13:41:20;;;;;;;0.30;0.30;;;9.70;99.90;;;;;;5110812;28;20195;-74
2023/10/08 13:43:51;;;;;;;0.20;0.20;;;9.60;99.90;;;;;;5110723;28;20191;-71
2023/10/08 13:46:18;;;;;;;0.30;0.30;;;9.50;99.90;;;;;;5110582;28;20191;-73
2023/10/08 13:48:48;;;;;;;0.20;0.20;;;9.40;99.90;;;;;;5110534;28;20249;-72
2023/10/08 13:51:20;;;;;;;0.20;0.20;;;9.30;99.90;;;;;;5110723;28;20343;-72
2023/10/08 13:53:53;;;;;;;0.28;0.28;;;9.30;99.90;;;;;;5101826;27;20593;-72
2023/10/08 13:56:24;;;;;;;0.30;0.30;;;9.20;99.90;;;;;;5130961;27;20217;-72
2023/10/08 13:58:51;;;;;;;0.20;0.20;;;9.50;99.90;;;;;;5131378;27;20253;-74
2023/10/08 14:01:21;;;;;;;0.40;0.40;;;9.50;99.90;;;;;;5125790;27;20211;-73
2023/10/08 14:03:53;;;;;;;1.38;0.50;;;9.40;99.90;;;;;;5110293;28;20183;-72
2023/10/08 14:06:20;;;;;;;0.93;0.70;;;9.20;99.90;;;;;;5091926;28;20200;-75
2023/10/08 14:08:55;;;;;;;0.20;0.20;;;9.10;99.90;;;;;;5115186;27;20234;-73
2023/10/08 14:11:29;;;;;;;0.20;0.20;;;9.00;99.90;;;;;;5130747;27;20194;-73
2023/10/08 14:13:56;;;;;;;0.88;0.82;;;8.90;99.90;;;;;;5130470;27;20204;-74
2023/10/08 14:16:28;;;;;;;0.30;0.30;;;8.80;99.90;;;;;;5130600;27;20553;-73
2023/10/08 14:18:55;;;;;;;0.20;0.20;;;8.80;99.90;;;;;;5130613;27;20615;-74
2023/10/08 14:21:24;;;;;;;18.73;2.50;;;8.70;99.90;;;;;;5111993;27;20282;-72